createdAt,value
2019-05-11T00:01:20.151Z,51.91
2019-05-11T00:03:52.994Z,50.12
2019-05-11T00:06:25.788Z,52.92
2019-05-11T00:08:58.589Z,55.24
2019-05-11T00:11:31.383Z,57.00
2019-05-11T00:14:04.205Z,58.81
2019-05-11T00:16:36.990Z,59.86
2019-05-11T00:19:09.835Z,61.25
2019-05-11T00:21:42.625Z,62.70
2019-05-11T00:24:15.661Z,62.28
2019-05-11T00:26:48.552Z,51.29
2019-05-11T00:29:21.449Z,51.84
2019-05-11T00:31:54.323Z,54.46
2019-05-11T00:34:27.150Z,56.78
2019-05-11T00:36:59.927Z,58.79
2019-05-11T00:39:32.754Z,60.07
2019-05-11T00:42:05.641Z,61.46
2019-05-11T00:44:38.448Z,62.48
2019-05-11T00:47:11.290Z,62.74
2019-05-11T00:49:44.082Z,52.47
2019-05-11T00:52:16.968Z,50.62
2019-05-11T00:54:49.770Z,53.13
2019-05-11T00:57:22.628Z,55.32
2019-05-11T00:59:55.436Z,57.09
2019-05-11T01:02:28.226Z,58.89
2019-05-11T01:05:01.060Z,60.09
2019-05-11T01:07:34.189Z,61.04
2019-05-11T01:10:21.752Z,61.97
2019-05-11T01:12:41.976Z,63.17
2019-05-11T01:15:15.326Z,62.75
2019-05-11T01:17:48.254Z,52.25
2019-05-11T01:20:21.157Z,51.53
2019-05-11T01:22:54.052Z,53.86
2019-05-11T01:25:26.817Z,56.17
2019-05-11T01:27:59.632Z,58.34
2019-05-11T01:30:32.729Z,60.23
2019-05-11T01:33:05.513Z,61.72
2019-05-11T01:35:38.321Z,62.97
2019-05-11T01:38:11.134Z,62.83
2019-05-11T01:40:57.538Z,53.41
2019-05-11T01:43:18.491Z,51.26
2019-05-11T01:45:51.284Z,54.07
2019-05-11T01:48:24.117Z,56.81
2019-05-11T01:50:56.971Z,58.64
2019-05-11T01:53:29.745Z,60.29
2019-05-11T01:56:02.535Z,61.41
2019-05-11T01:58:35.341Z,63.16
2019-05-11T02:01:08.123Z,62.23
2019-05-11T02:03:40.948Z,51.10
2019-05-11T02:06:13.716Z,51.23
2019-05-11T02:08:46.487Z,53.86
2019-05-11T02:11:19.349Z,56.10
2019-05-11T02:13:52.124Z,58.47
2019-05-11T02:16:24.908Z,59.87
2019-05-11T02:18:57.711Z,60.99
2019-05-11T02:21:30.570Z,61.89
2019-05-11T02:24:03.337Z,63.03
2019-05-11T02:26:36.209Z,62.21
2019-05-11T02:29:09.131Z,51.68
2019-05-11T02:31:42.928Z,51.20
2019-05-11T02:34:15.815Z,53.70
2019-05-11T02:36:48.596Z,56.16
2019-05-11T02:39:21.493Z,58.39
2019-05-11T02:41:55.233Z,59.70
2019-05-11T02:44:29.136Z,61.03
2019-05-11T02:47:01.948Z,61.94
2019-05-11T02:49:34.858Z,63.00
2019-05-11T02:52:08.401Z,63.67
2019-05-11T02:54:42.741Z,53.16
2019-05-11T02:57:15.578Z,50.75
2019-05-11T02:59:48.419Z,53.35
2019-05-11T03:02:21.204Z,56.04
2019-05-11T03:04:54.108Z,58.57
2019-05-11T03:07:26.954Z,59.67
2019-05-11T03:09:59.757Z,61.76
2019-05-11T03:12:32.666Z,62.80
2019-05-11T03:15:06.079Z,62.99
2019-05-11T03:17:38.863Z,53.28
2019-05-11T03:20:11.806Z,51.13
2019-05-11T03:22:44.608Z,53.90
2019-05-11T03:25:17.492Z,56.08
2019-05-11T03:27:50.354Z,57.64
2019-05-11T03:30:23.841Z,59.55
2019-05-11T03:32:56.760Z,61.01
2019-05-11T03:35:29.669Z,62.37
2019-05-11T03:38:02.730Z,63.06
2019-05-11T03:40:35.631Z,53.12
2019-05-11T03:43:08.468Z,50.91
2019-05-11T03:45:41.420Z,53.79
2019-05-11T03:48:14.190Z,56.40
2019-05-11T03:50:47.016Z,58.60
2019-05-11T03:53:19.878Z,60.70
2019-05-11T03:55:52.767Z,62.27
2019-05-11T03:58:26.886Z,63.50
2019-05-11T04:00:59.839Z,53.68
2019-05-11T04:03:32.831Z,50.72
2019-05-11T04:06:05.749Z,53.52
2019-05-11T04:08:39.605Z,56.49
2019-05-11T04:11:12.462Z,58.80
2019-05-11T04:13:45.448Z,60.19
2019-05-11T04:16:18.271Z,61.85
2019-05-11T04:18:51.362Z,63.94
2019-05-11T04:21:24.318Z,62.23
2019-05-11T04:23:57.112Z,51.69
2019-05-11T04:26:29.919Z,51.81
2019-05-11T04:29:02.912Z,54.62
2019-05-11T04:31:36.600Z,57.94
2019-05-11T04:34:09.406Z,60.32
2019-05-11T04:36:42.310Z,60.78
2019-05-11T04:39:15.346Z,62.35
2019-05-11T04:41:48.318Z,62.68
2019-05-11T04:44:21.257Z,53.02
2019-05-11T04:46:54.094Z,52.06
2019-05-11T04:49:27.072Z,54.75
2019-05-11T04:52:00.138Z,57.43
2019-05-11T04:54:34.541Z,59.31
2019-05-11T04:57:07.709Z,61.43
2019-05-11T04:59:41.077Z,63.88
2019-05-11T05:02:13.913Z,56.69
2019-05-11T05:04:47.100Z,52.95
2019-05-11T05:07:20.255Z,55.40
2019-05-11T05:09:53.079Z,58.74
2019-05-11T05:12:26.354Z,61.27
2019-05-11T05:14:59.356Z,63.56
2019-05-11T05:17:32.356Z,58.18
2019-05-11T05:20:07.494Z,53.01
2019-05-11T05:22:40.340Z,55.30
2019-05-11T05:25:13.251Z,57.48
2019-05-11T05:27:46.155Z,59.11
2019-05-11T05:30:19.076Z,60.78
2019-05-11T05:32:52.110Z,62.94
2019-05-11T05:35:24.917Z,63.11
2019-05-11T05:37:57.967Z,53.24
2019-05-11T05:40:30.907Z,50.48
2019-05-11T05:43:03.710Z,53.23
2019-05-11T05:45:36.609Z,56.04
2019-05-11T05:48:09.492Z,57.10
2019-05-11T05:50:42.326Z,59.52
2019-05-11T05:53:15.187Z,60.23
2019-05-11T05:55:48.247Z,62.15
2019-05-11T05:58:21.087Z,64.41
2019-05-11T06:00:53.908Z,61.17
2019-05-11T06:03:26.797Z,51.81
2019-05-11T06:05:59.617Z,52.49
2019-05-11T06:08:32.637Z,55.56
2019-05-11T06:11:05.481Z,57.15
2019-05-11T06:13:45.169Z,58.46
2019-05-11T06:16:13.045Z,59.86
2019-05-11T06:18:46.027Z,61.43
2019-05-11T06:21:18.930Z,62.08
2019-05-11T06:23:51.851Z,63.59
2019-05-11T06:26:25.121Z,53.64
2019-05-11T06:28:58.045Z,51.31
2019-05-11T06:31:33.383Z,53.20
2019-05-11T06:34:06.648Z,55.21
2019-05-11T06:36:40.163Z,57.69
2019-05-11T06:39:13.213Z,59.05
2019-05-11T06:41:46.253Z,60.51
2019-05-11T06:44:19.131Z,61.23
2019-05-11T06:46:52.020Z,62.31
2019-05-11T06:49:25.140Z,61.19
2019-05-11T06:51:58.041Z,52.95
2019-05-11T06:54:30.914Z,50.97
2019-05-11T06:57:03.711Z,53.32
2019-05-11T06:59:36.647Z,55.37
2019-05-11T07:02:09.544Z,56.41
2019-05-11T07:04:42.614Z,57.90
2019-05-11T07:07:15.553Z,58.76
2019-05-11T07:09:48.574Z,59.41
2019-05-11T07:12:21.577Z,60.33
2019-05-11T07:14:54.730Z,60.66
2019-05-11T07:17:27.809Z,61.40
2019-05-11T07:20:00.844Z,62.66
2019-05-11T07:22:33.788Z,61.85
2019-05-11T07:25:07.264Z,51.39
2019-05-11T07:27:40.080Z,49.71
2019-05-11T07:30:13.383Z,51.92
2019-05-11T07:32:48.179Z,53.66
2019-05-11T07:35:21.351Z,55.03
2019-05-11T07:37:54.177Z,56.60
2019-05-11T07:40:27.949Z,56.83
2019-05-11T07:43:00.924Z,57.65
2019-05-11T07:45:33.795Z,58.02
2019-05-11T07:48:08.017Z,58.89
2019-05-11T07:50:41.122Z,58.80
2019-05-11T07:53:13.991Z,59.09
2019-05-11T07:55:48.523Z,59.57
2019-05-11T07:58:22.720Z,59.89
2019-05-11T08:00:58.063Z,59.71
2019-05-11T08:03:30.478Z,59.77
2019-05-11T08:06:03.493Z,59.97
2019-05-11T08:08:38.512Z,60.33
2019-05-11T08:11:12.754Z,60.25
2019-05-11T08:13:47.906Z,60.58
2019-05-11T08:16:20.401Z,58.75
2019-05-11T08:18:53.329Z,58.53
2019-05-11T08:21:28.407Z,57.85
2019-05-11T08:24:00.874Z,57.89
2019-05-11T08:26:33.753Z,58.13
2019-05-11T08:29:08.161Z,57.63
2019-05-11T08:31:41.512Z,56.66
2019-05-11T08:34:15.308Z,56.46
2019-05-11T08:36:48.497Z,55.63
2019-05-11T08:39:21.428Z,56.28
2019-05-11T08:41:54.506Z,55.31
2019-05-11T08:44:28.762Z,55.03
2019-05-11T08:47:02.638Z,55.40
2019-05-11T08:49:37.949Z,52.39
2019-05-11T08:52:10.226Z,53.10
2019-05-11T08:54:43.295Z,53.12
2019-05-11T08:57:18.011Z,51.07
2019-05-11T08:59:51.399Z,51.18
2019-05-11T09:02:24.700Z,53.23
2019-05-11T09:04:58.899Z,51.06
2019-05-11T09:07:32.530Z,50.66
2019-05-11T09:10:07.952Z,49.41
2019-05-11T09:12:40.343Z,48.72
2019-05-11T09:15:28.070Z,47.90
2019-05-11T09:17:48.787Z,45.60
2019-05-11T09:20:21.750Z,47.57
2019-05-11T09:22:54.668Z,45.72
2019-05-11T09:25:27.818Z,47.29
2019-05-11T09:28:00.663Z,46.28
2019-05-11T09:30:33.542Z,45.33
2019-05-11T09:33:08.428Z,44.11
2019-05-11T09:35:49.817Z,44.92
2019-05-11T09:38:15.607Z,44.71
2019-05-11T09:40:48.423Z,45.19
2019-05-11T09:43:21.243Z,44.83
2019-05-11T09:45:54.238Z,45.33
2019-05-11T09:48:28.383Z,45.05
2019-05-11T09:51:01.529Z,43.07
2019-05-11T09:53:34.383Z,43.00
2019-05-11T09:56:08.077Z,42.93
2019-05-11T09:58:41.169Z,40.93
2019-05-11T10:01:14.119Z,42.13
2019-05-11T10:03:48.108Z,42.70
2019-05-11T10:06:22.377Z,41.88
2019-05-11T10:08:57.733Z,42.06
2019-05-11T10:11:29.861Z,40.59
2019-05-11T10:14:02.787Z,40.36
2019-05-11T10:16:38.622Z,40.71
2019-05-11T10:19:11.211Z,40.90
2019-05-11T10:21:44.244Z,39.17
2019-05-11T10:24:17.842Z,39.37
2019-05-11T10:26:51.070Z,38.61
2019-05-11T10:29:24.116Z,38.01
2019-05-11T10:31:58.822Z,38.34
2019-05-11T10:34:32.168Z,38.32
2019-05-11T10:37:05.211Z,37.96
2019-05-11T10:39:38.445Z,37.60
2019-05-11T10:42:12.490Z,37.43
2019-05-11T10:44:47.696Z,37.32
2019-05-11T10:47:20.279Z,37.46
2019-05-11T10:49:53.167Z,36.93
2019-05-11T10:52:28.391Z,36.96
2019-05-11T10:55:00.629Z,37.24
2019-05-11T10:57:33.697Z,35.35
2019-05-11T11:00:09.292Z,35.20
2019-05-11T11:02:42.168Z,35.05
2019-05-11T11:05:15.108Z,34.11
2019-05-11T11:07:48.510Z,34.34
2019-05-11T11:10:21.576Z,33.08
2019-05-11T11:12:54.374Z,33.39
2019-05-11T11:15:28.802Z,32.31
2019-05-11T11:18:02.815Z,32.38
2019-05-11T11:20:35.665Z,32.52
2019-05-11T11:23:08.962Z,32.70
2019-05-11T11:25:42.549Z,33.05
2019-05-11T11:28:17.194Z,32.08
2019-05-11T11:30:50.016Z,33.01
2019-05-11T11:33:22.855Z,33.06
2019-05-11T11:35:57.800Z,31.88
2019-05-11T11:38:30.165Z,31.34
2019-05-11T11:41:03.306Z,32.71
2019-05-11T11:43:37.758Z,32.47
2019-05-11T11:46:10.756Z,32.96
2019-05-11T11:48:43.617Z,32.51
2019-05-11T11:51:18.656Z,32.17
2019-05-11T11:53:51.112Z,31.42
2019-05-11T11:56:23.911Z,31.86
2019-05-11T11:58:57.920Z,32.20
2019-05-11T12:01:31.031Z,31.94
2019-05-11T12:04:03.967Z,31.57
2019-05-11T12:06:38.640Z,32.28
2019-05-11T12:09:11.416Z,32.70
2019-05-11T12:11:44.310Z,32.70
2019-05-11T12:14:18.711Z,32.82
2019-05-11T12:17:04.000Z,33.16
2019-05-11T12:19:27.881Z,34.07
2019-05-11T12:22:01.097Z,34.15
2019-05-11T12:24:33.905Z,34.60
2019-05-11T12:27:07.744Z,34.02
2019-05-11T12:29:40.732Z,34.67
2019-05-11T12:32:19.670Z,35.41
2019-05-11T12:34:52.502Z,36.11
2019-05-11T12:37:25.285Z,36.07
2019-05-11T12:39:58.307Z,36.24
2019-05-11T12:42:31.190Z,36.62
2019-05-11T12:45:04.350Z,36.33
2019-05-11T12:47:38.602Z,36.36
2019-05-11T12:50:12.342Z,36.95
2019-05-11T12:52:47.543Z,36.96
2019-05-11T12:55:19.863Z,37.43
2019-05-11T12:57:52.801Z,37.59
2019-05-11T13:00:30.875Z,37.77
2019-05-11T13:03:01.489Z,37.60
2019-05-11T13:05:34.355Z,37.72
2019-05-11T13:08:08.028Z,37.20
2019-05-11T13:10:41.135Z,38.07
2019-05-11T13:13:14.044Z,38.05
2019-05-11T13:15:47.984Z,37.91
2019-05-11T13:18:21.073Z,38.08
2019-05-11T13:20:53.880Z,38.31
2019-05-11T13:23:27.787Z,37.61
2019-05-11T13:26:00.900Z,37.94
2019-05-11T13:28:33.931Z,37.92
2019-05-11T13:31:08.268Z,38.67
2019-05-11T13:33:41.266Z,38.39
2019-05-11T13:36:14.102Z,37.86
2019-05-11T13:38:48.337Z,38.36
2019-05-11T13:41:21.449Z,37.78
2019-05-11T13:43:54.283Z,38.15
2019-05-11T13:46:28.279Z,37.63
2019-05-11T13:49:01.339Z,37.99
2019-05-11T13:51:34.254Z,38.19
2019-05-11T13:54:07.927Z,38.02
2019-05-11T13:56:41.097Z,38.61
2019-05-11T13:59:13.921Z,39.15
2019-05-11T14:01:47.801Z,38.87
2019-05-11T14:04:20.959Z,39.35
2019-05-11T14:06:53.920Z,39.22
2019-05-11T14:09:28.833Z,39.07
2019-05-11T14:12:02.002Z,39.42
2019-05-11T14:14:34.861Z,40.65
2019-05-11T14:17:08.403Z,41.72
2019-05-11T14:19:41.304Z,42.37
2019-05-11T14:22:14.185Z,42.19
2019-05-11T14:24:48.268Z,42.21
2019-05-11T14:27:22.968Z,42.28
2019-05-11T14:29:57.721Z,43.04
2019-05-11T14:32:30.571Z,42.77
2019-05-11T14:35:03.457Z,43.14
2019-05-11T14:37:37.956Z,42.96
2019-05-11T14:40:11.011Z,43.44
2019-05-11T14:42:43.928Z,43.40
2019-05-11T14:45:18.714Z,43.16
2019-05-11T14:47:51.324Z,43.26
2019-05-11T14:50:24.141Z,43.52
2019-05-11T14:52:58.092Z,43.41
2019-05-11T14:55:31.133Z,43.28
2019-05-11T14:58:05.531Z,43.34
2019-05-11T15:00:39.262Z,43.82
2019-05-11T15:03:12.384Z,43.89
2019-05-11T15:05:47.358Z,44.29
2019-05-11T15:08:20.226Z,44.11
2019-05-11T15:10:53.111Z,45.20
2019-05-11T15:13:25.913Z,44.82
2019-05-11T15:16:00.592Z,44.82
2019-05-11T15:18:38.522Z,45.00
2019-05-11T15:21:08.364Z,45.16
2019-05-11T15:23:41.303Z,45.13
2019-05-11T15:26:14.159Z,45.33
2019-05-11T15:28:48.652Z,45.48
2019-05-11T15:31:22.572Z,45.64
2019-05-11T15:33:57.625Z,46.65
2019-05-11T15:36:30.329Z,47.06
2019-05-11T15:39:03.322Z,47.25
2019-05-11T15:41:38.823Z,47.56
2019-05-11T15:44:12.902Z,47.69
2019-05-11T15:46:47.796Z,47.88
2019-05-11T15:49:20.264Z,48.08
2019-05-11T15:51:53.187Z,48.22
2019-05-11T15:54:28.661Z,48.59
2019-05-11T15:57:00.751Z,48.77
2019-05-11T15:59:33.682Z,49.54
2019-05-11T16:02:08.628Z,50.37
2019-05-11T16:04:41.544Z,50.10
2019-05-11T16:07:15.532Z,49.87
2019-05-11T16:09:48.764Z,50.70
2019-05-11T16:12:21.694Z,50.96
2019-05-11T16:14:54.583Z,50.73
2019-05-11T16:17:27.444Z,51.07
2019-05-11T16:20:00.450Z,51.16
2019-05-11T16:22:33.481Z,51.33
2019-05-11T16:25:08.633Z,51.37
2019-05-11T16:27:41.437Z,51.47
2019-05-11T16:30:14.869Z,51.65
2019-05-11T16:32:48.187Z,51.99
2019-05-11T16:35:21.263Z,52.26
2019-05-11T16:37:54.187Z,52.18
2019-05-11T16:40:29.432Z,52.20
2019-05-11T16:43:01.825Z,52.18
2019-05-11T16:45:34.995Z,52.65
2019-05-11T16:48:08.109Z,52.81
2019-05-11T16:50:40.984Z,52.52
2019-05-11T16:53:13.798Z,52.76
2019-05-11T16:55:49.224Z,52.99
2019-05-11T16:58:23.763Z,52.89
2019-05-11T17:00:58.207Z,53.16
2019-05-11T17:03:31.541Z,53.13
2019-05-11T17:06:04.502Z,53.41
2019-05-11T17:08:39.438Z,53.29
2019-05-11T17:11:12.489Z,53.66
2019-05-11T17:13:45.471Z,53.90
2019-05-11T17:16:18.707Z,53.81
2019-05-11T17:18:51.906Z,53.95
2019-05-11T17:21:25.002Z,53.90
2019-05-11T17:23:58.034Z,54.11
2019-05-11T17:26:31.021Z,53.98
2019-05-11T17:29:03.990Z,54.27
2019-05-11T17:31:38.170Z,54.47
2019-05-11T17:34:11.303Z,54.51
2019-05-11T17:36:44.269Z,54.82
2019-05-11T17:39:18.825Z,55.11
2019-05-11T17:41:52.544Z,55.21
2019-05-11T17:44:25.468Z,54.86
2019-05-11T17:46:58.488Z,55.05
2019-05-11T17:49:31.873Z,54.96
2019-05-11T17:52:05.084Z,55.35
2019-05-11T17:54:39.207Z,55.48
2019-05-11T17:57:12.802Z,55.63
2019-05-11T17:59:47.593Z,55.61
2019-05-11T18:02:20.954Z,56.09
2019-05-11T18:04:58.445Z,56.14
2019-05-11T18:07:31.780Z,56.00
2019-05-11T18:10:04.858Z,56.29
2019-05-11T18:12:39.199Z,56.68
2019-05-11T18:15:12.528Z,57.22
2019-05-11T18:17:49.234Z,56.98
2019-05-11T18:20:22.979Z,56.84
2019-05-11T18:22:57.792Z,56.65
2019-05-11T18:25:30.858Z,56.85
2019-05-11T18:28:03.834Z,56.89
2019-05-11T18:30:38.625Z,57.21
2019-05-11T18:33:12.377Z,57.62
2019-05-11T18:35:45.248Z,57.68
2019-05-11T18:38:18.664Z,57.86
2019-05-11T18:40:51.633Z,57.64
2019-05-11T18:43:24.528Z,57.70
2019-05-11T18:45:58.295Z,57.29
2019-05-11T18:48:31.483Z,57.49
2019-05-11T18:51:04.397Z,57.44
2019-05-11T18:53:37.606Z,57.79
2019-05-11T18:56:10.505Z,58.42
2019-05-11T18:58:43.735Z,58.83
2019-05-11T19:01:17.859Z,59.40
2019-05-11T19:03:51.047Z,59.49
2019-05-11T19:06:24.069Z,59.78
2019-05-11T19:08:58.114Z,60.40
2019-05-11T19:11:31.225Z,60.84
2019-05-11T19:14:04.457Z,61.45
2019-05-11T19:16:38.989Z,62.09
2019-05-11T19:19:12.379Z,63.29
2019-05-11T19:21:48.175Z,57.90
2019-05-11T19:24:21.141Z,51.38
2019-05-11T19:26:54.027Z,51.23
2019-05-11T19:29:28.291Z,52.60
2019-05-11T19:32:01.511Z,53.16
2019-05-11T19:34:34.572Z,53.87
2019-05-11T19:37:08.623Z,54.15
2019-05-11T19:39:41.898Z,54.86
2019-05-11T19:42:14.903Z,55.24
2019-05-11T19:44:48.043Z,55.62
2019-05-11T19:47:21.188Z,55.80
2019-05-11T19:49:54.347Z,55.80
2019-05-11T19:52:28.166Z,56.14
2019-05-11T19:55:01.871Z,56.49
2019-05-11T19:57:34.970Z,56.69
2019-05-11T20:00:08.054Z,57.12
2019-05-11T20:02:40.969Z,57.72
2019-05-11T20:05:14.300Z,57.69
2019-05-11T20:07:48.661Z,58.39
2019-05-11T20:10:22.094Z,58.96
2019-05-11T20:12:55.053Z,60.01
2019-05-11T20:15:27.966Z,60.82
2019-05-11T20:18:00.952Z,61.02
2019-05-11T20:20:33.972Z,60.92
2019-05-11T20:23:07.790Z,61.27
2019-05-11T20:25:40.905Z,61.85
2019-05-11T20:28:13.871Z,62.33
2019-05-11T20:30:48.257Z,62.81
2019-05-11T20:33:21.255Z,60.20
2019-05-11T20:35:54.374Z,52.91
2019-05-11T20:38:28.505Z,48.41
2019-05-11T20:41:01.604Z,50.33
2019-05-11T20:43:34.585Z,52.15
2019-05-11T20:46:09.081Z,53.59
2019-05-11T20:48:43.115Z,54.81
2019-05-11T20:51:32.205Z,55.76
2019-05-11T20:53:50.903Z,56.32
2019-05-11T20:56:23.822Z,56.57
2019-05-11T20:59:00.029Z,57.37
2019-05-11T21:01:33.083Z,58.18
2019-05-11T21:04:08.415Z,58.73
2019-05-11T21:06:41.202Z,59.16
2019-05-11T21:09:14.330Z,59.19
2019-05-11T21:11:47.969Z,59.51
2019-05-11T21:14:21.071Z,59.47
2019-05-11T21:16:54.044Z,59.93
2019-05-11T21:19:28.347Z,60.24
2019-05-11T21:22:01.539Z,61.00
2019-05-11T21:24:37.980Z,61.48
2019-05-11T21:27:11.051Z,61.86
2019-05-11T21:29:43.873Z,62.52
2019-05-11T21:32:18.023Z,62.87
2019-05-11T21:34:51.057Z,51.59
2019-05-11T21:37:23.881Z,49.53
2019-05-11T21:39:57.789Z,51.73
2019-05-11T21:42:30.993Z,53.41
2019-05-11T21:45:04.419Z,55.07
2019-05-11T21:47:38.681Z,55.80
2019-05-11T21:50:13.042Z,56.94
2019-05-11T21:52:48.305Z,58.08
2019-05-11T21:55:20.611Z,58.37
2019-05-11T21:57:53.471Z,59.05
2019-05-11T22:00:28.174Z,59.64
2019-05-11T22:03:02.753Z,60.14
2019-05-11T22:05:38.044Z,60.43
2019-05-11T22:08:10.339Z,60.79
2019-05-11T22:10:43.445Z,61.09
2019-05-11T22:13:18.100Z,61.70
2019-05-11T22:15:50.911Z,62.94
2019-05-11T22:18:30.990Z,62.84
2019-05-11T22:20:59.011Z,51.99
2019-05-11T22:23:31.900Z,50.07
2019-05-11T22:26:07.597Z,52.34
2019-05-11T22:28:39.858Z,54.11
2019-05-11T22:31:12.666Z,55.53
2019-05-11T22:33:47.891Z,56.34
2019-05-11T22:36:19.978Z,57.81
2019-05-11T22:38:52.858Z,58.48
2019-05-11T22:41:25.722Z,59.45
2019-05-11T22:43:58.580Z,60.70
2019-05-11T22:46:31.535Z,61.60
2019-05-11T22:49:04.409Z,61.45
2019-05-11T22:51:37.336Z,61.17
2019-05-11T22:54:11.128Z,61.92
2019-05-11T22:56:44.101Z,63.06
2019-05-11T22:59:18.491Z,57.98
2019-05-11T23:01:51.477Z,51.98
2019-05-11T23:04:24.440Z,54.22
2019-05-11T23:06:58.451Z,55.66
2019-05-11T23:09:31.390Z,57.87
2019-05-11T23:12:04.296Z,59.36
2019-05-11T23:14:37.801Z,60.11
2019-05-11T23:17:10.913Z,61.05
2019-05-11T23:19:44.010Z,62.04
2019-05-11T23:22:18.333Z,62.59
2019-05-11T23:24:51.757Z,61.41
2019-05-11T23:27:24.771Z,51.89
2019-05-11T23:29:58.167Z,50.81
2019-05-11T23:32:31.133Z,53.26
2019-05-11T23:35:03.953Z,56.07
2019-05-11T23:37:38.660Z,57.74
2019-05-11T23:40:12.972Z,59.32
2019-05-11T23:42:48.664Z,61.04
2019-05-11T23:45:21.379Z,61.79
2019-05-11T23:47:54.179Z,62.83
2019-05-11T23:50:28.159Z,59.69
2019-05-11T23:53:06.359Z,53.10
2019-05-11T23:55:37.966Z,54.96
2019-05-11T23:58:10.628Z,57.18
